Time;durP1;ratioP1;P1;durP2;ratioP2;P2;SDS_P1;SDS_P2;PMS_P1;PMS_P2;Temp;Humidity;BMP_temperature;BMP_pressure;BME280_temperature;BME280_humidity;BME280_pressure;Samples;Min_cycle;Max_cycle;Signal;HPM_P1;HPM_P2
2023/06/06 00:01:40;;;;;;;0.20;0.20;;;12.20;99.90;;;;;;5034293;28;20112;-51
2023/06/06 00:04:06;;;;;;;0.20;0.20;;;12.20;99.90;;;;;;5034129;28;20553;-50
2023/06/06 00:06:33;;;;;;;0.20;0.20;;;12.20;99.90;;;;;;5034188;28;20131;-51
2023/06/06 00:08:59;;;;;;;0.10;0.10;;;12.20;99.90;;;;;;5033816;28;20392;-53
2023/06/06 00:11:26;;;;;;;0.20;0.20;;;12.20;99.90;;;;;;5034010;28;20084;-52
2023/06/06 00:13:51;;;;;;;0.82;0.30;;;12.20;99.90;;;;;;5033913;28;20037;-52
2023/06/06 00:16:17;;;;;;;0.22;0.22;;;12.20;99.90;;;;;;5033701;28;20412;-50
2023/06/06 00:18:45;;;;;;;0.20;0.20;;;12.20;99.90;;;;;;5034025;28;20026;-51
2023/06/06 00:21:12;;;;;;;0.20;0.20;;;12.20;99.90;;;;;;5033972;28;20036;-52
2023/06/06 00:23:38;;;;;;;0.68;0.40;;;12.20;99.90;;;;;;5034071;28;20040;-53
2023/06/06 00:26:03;;;;;;;0.43;0.43;;;12.20;99.90;;;;;;5033205;28;20034;-53
2023/06/06 00:28:29;;;;;;;0.13;0.13;;;12.20;99.90;;;;;;5033713;28;20477;-50
2023/06/06 00:30:55;;;;;;;0.20;0.20;;;12.20;99.90;;;;;;5033844;28;20026;-49
2023/06/06 00:33:20;;;;;;;0.20;0.20;;;12.10;99.90;;;;;;5033359;28;20091;-52
2023/06/06 00:35:46;;;;;;;0.30;0.30;;;12.10;99.90;;;;;;5033597;28;20022;-50
2023/06/06 00:38:11;;;;;;;0.20;0.20;;;12.10;99.90;;;;;;5033416;28;20025;-49
2023/06/06 00:40:37;;;;;;;0.45;0.20;;;12.10;99.90;;;;;;5033221;28;20029;-49
2023/06/06 00:43:03;;;;;;;0.20;0.20;;;12.10;99.90;;;;;;5033599;28;20034;-51
2023/06/06 00:45:28;;;;;;;0.20;0.20;;;12.00;99.90;;;;;;5033302;28;20075;-50
2023/06/06 00:47:54;;;;;;;0.10;0.10;;;12.00;99.90;;;;;;5033410;28;20033;-52
2023/06/06 00:50:23;;;;;;;0.20;0.20;;;12.00;99.90;;;;;;5033184;28;20026;-52
2023/06/06 00:52:49;;;;;;;0.30;0.30;;;12.00;99.90;;;;;;5033204;28;20030;-53
2023/06/06 00:55:17;;;;;;;0.20;0.20;;;11.90;99.90;;;;;;5033072;28;20082;-52
2023/06/06 00:57:45;;;;;;;0.43;0.30;;;11.90;99.90;;;;;;5026561;28;20051;-54
2023/06/06 01:00:12;;;;;;;0.25;0.25;;;11.90;99.90;;;;;;5033391;28;20084;-53
2023/06/06 01:02:39;;;;;;;0.30;0.30;;;11.90;99.90;;;;;;5032937;28;20075;-50
2023/06/06 01:05:06;;;;;;;0.20;0.20;;;11.90;99.90;;;;;;5033134;28;20045;-51
2023/06/06 01:07:32;;;;;;;0.20;0.20;;;11.90;99.90;;;;;;5032954;28;20429;-52
2023/06/06 01:09:59;;;;;;;0.20;0.20;;;11.90;99.90;;;;;;5032777;28;20439;-54
2023/06/06 01:12:37;;;;;;;0.30;0.30;;;11.90;99.90;;;;;;5032666;28;20511;-52
2023/06/06 01:15:16;;;;;;;0.20;0.20;;;11.90;99.90;;;;;;5032795;28;20480;-51
2023/06/06 01:17:42;;;;;;;0.10;0.10;;;11.90;99.90;;;;;;5032755;28;20473;-52
2023/06/06 01:20:09;;;;;;;0.20;0.20;;;11.90;99.90;;;;;;5032913;28;20029;-51
2023/06/06 01:22:36;;;;;;;0.38;0.30;;;11.90;99.90;;;;;;5032733;28;20022;-53
2023/06/06 01:25:03;;;;;;;0.20;0.20;;;11.80;99.90;;;;;;5032445;28;20314;-52
2023/06/06 01:27:33;;;;;;;1.25;1.15;;;11.90;99.90;;;;;;5032290;28;20468;-49
2023/06/06 01:30:02;;;;;;;0.13;0.13;;;11.80;99.90;;;;;;5032555;28;20099;-55
2023/06/06 01:32:48;;;;;;;0.93;0.20;;;11.80;99.90;;;;;;5032387;28;20041;-53
2023/06/06 01:35:48;;;;;;;0.20;0.20;;;11.80;99.90;;;;;;5032300;28;20045;-49
2023/06/06 01:38:24;;;;;;;0.30;0.25;;;11.80;99.90;;;;;;5032487;28;20025;-52
2023/06/06 01:40:54;;;;;;;0.20;0.20;;;11.80;99.90;;;;;;5032297;28;20013;-49
2023/06/06 01:43:23;;;;;;;0.20;0.20;;;11.80;99.90;;;;;;5032227;28;20044;-55
2023/06/06 01:45:50;;;;;;;0.20;0.20;;;11.70;99.90;;;;;;5032468;28;20052;-49
2023/06/06 01:48:18;;;;;;;0.13;0.13;;;11.70;99.90;;;;;;5032240;28;20037;-52
2023/06/06 01:50:44;;;;;;;0.28;0.28;;;11.60;99.90;;;;;;5031837;28;20026;-49
2023/06/06 01:53:10;;;;;;;0.50;0.30;;;11.60;99.90;;;;;;5031855;28;20057;-50
2023/06/06 01:55:36;;;;;;;0.20;0.20;;;11.60;99.90;;;;;;5031279;28;21437;-52
2023/06/06 01:58:03;;;;;;;0.20;0.20;;;11.50;99.90;;;;;;5031593;28;20056;-50
2023/06/06 02:00:29;;;;;;;0.20;0.20;;;11.50;99.90;;;;;;5031778;28;20550;-49
2023/06/06 02:02:55;;;;;;;0.30;0.30;;;11.60;99.90;;;;;;5031927;28;20384;-52
2023/06/06 02:05:21;;;;;;;0.10;0.10;;;11.50;99.90;;;;;;5031876;28;20034;-50
2023/06/06 02:07:49;;;;;;;0.17;0.17;;;11.50;99.90;;;;;;5031834;28;20018;-49
2023/06/06 02:10:15;;;;;;;0.22;0.22;;;11.50;99.90;;;;;;5031222;28;20396;-49
2023/06/06 02:12:41;;;;;;;0.32;0.32;;;11.30;99.90;;;;;;5030048;28;20037;-51
2023/06/06 02:15:09;;;;;;;0.20;0.20;;;11.30;99.90;;;;;;5031085;28;20033;-52
2023/06/06 02:17:35;;;;;;;0.20;0.20;;;11.30;99.90;;;;;;5030857;28;20025;-50
2023/06/06 02:20:01;;;;;;;0.40;0.40;;;11.20;99.90;;;;;;5031283;28;20029;-52
2023/06/06 02:22:26;;;;;;;0.20;0.20;;;11.20;99.90;;;;;;5013943;28;20508;-54
2023/06/06 02:24:53;;;;;;;0.10;0.10;;;11.20;99.90;;;;;;5031264;28;20091;-55
2023/06/06 02:27:19;;;;;;;0.30;0.30;;;11.20;99.90;;;;;;5030741;28;20147;-53
2023/06/06 02:29:45;;;;;;;0.40;0.40;;;11.10;99.90;;;;;;5031508;28;20167;-50
2023/06/06 02:32:11;;;;;;;0.28;0.28;;;11.10;99.90;;;;;;5031317;28;20522;-52
2023/06/06 02:34:37;;;;;;;0.35;0.35;;;11.10;99.90;;;;;;5031310;28;20045;-52
2023/06/06 02:37:06;;;;;;;0.77;0.77;;;11.20;99.90;;;;;;5013198;28;20057;-52
2023/06/06 02:39:33;;;;;;;0.20;0.20;;;11.10;99.90;;;;;;5030973;28;20032;-52
2023/06/06 02:41:59;;;;;;;0.30;0.30;;;11.10;99.90;;;;;;5030897;28;20025;-50
2023/06/06 02:44:26;;;;;;;0.20;0.20;;;11.20;99.90;;;;;;5031222;28;20029;-50
2023/06/06 02:46:52;;;;;;;0.20;0.20;;;11.20;99.90;;;;;;5031023;28;20036;-54
2023/06/06 02:49:18;;;;;;;0.20;0.20;;;11.10;99.90;;;;;;5031034;28;20021;-50
2023/06/06 02:51:43;;;;;;;0.10;0.10;;;11.20;99.90;;;;;;5030789;28;20037;-51
2023/06/06 02:54:09;;;;;;;0.20;0.20;;;11.10;99.90;;;;;;5030590;28;20050;-49
2023/06/06 02:56:35;;;;;;;0.20;0.20;;;11.20;99.90;;;;;;5030527;28;20555;-55
2023/06/06 02:59:00;;;;;;;0.20;0.20;;;11.20;99.90;;;;;;5030841;28;20101;-50
2023/06/06 03:01:26;;;;;;;0.20;0.20;;;11.10;99.90;;;;;;5030935;28;20043;-50
2023/06/06 03:03:52;;;;;;;0.20;0.20;;;11.10;99.90;;;;;;5030772;28;20028;-53
2023/06/06 03:06:20;;;;;;;0.20;0.20;;;11.10;99.90;;;;;;5030927;28;20420;-52
2023/06/06 03:08:46;;;;;;;0.40;0.40;;;11.10;99.90;;;;;;5030623;28;20065;-48
2023/06/06 03:11:12;;;;;;;0.17;0.17;;;11.10;99.90;;;;;;5030519;28;20396;-49
2023/06/06 03:13:38;;;;;;;0.20;0.20;;;11.00;99.90;;;;;;5030920;28;20025;-49
2023/06/06 03:16:04;;;;;;;0.22;0.22;;;10.90;99.90;;;;;;5030660;28;20121;-49
2023/06/06 03:18:31;;;;;;;0.20;0.20;;;11.00;99.90;;;;;;5029617;28;20044;-49
2023/06/06 03:20:57;;;;;;;0.40;0.30;;;11.00;99.90;;;;;;5030462;28;20095;-52
2023/06/06 03:23:22;;;;;;;0.20;0.20;;;10.90;99.90;;;;;;5030664;28;20684;-50
2023/06/06 03:25:49;;;;;;;0.20;0.20;;;10.90;99.90;;;;;;5030267;28;20028;-49
2023/06/06 03:28:17;;;;;;;0.20;0.20;;;10.90;99.90;;;;;;5029616;28;20013;-49
2023/06/06 03:30:43;;;;;;;0.20;0.20;;;10.90;99.90;;;;;;5030526;28;20172;-49
2023/06/06 03:33:09;;;;;;;0.43;0.43;;;10.90;99.90;;;;;;5029994;28;20044;-49
2023/06/06 03:35:35;;;;;;;0.22;0.22;;;10.90;99.90;;;;;;5022788;28;20022;-49
2023/06/06 03:38:01;;;;;;;0.20;0.20;;;11.00;99.90;;;;;;5013396;28;20022;-49
2023/06/06 03:40:27;;;;;;;0.28;0.28;;;11.00;99.90;;;;;;5024738;28;20021;-49
2023/06/06 03:42:53;;;;;;;0.20;0.20;;;11.00;99.90;;;;;;5024810;28;20030;-48
2023/06/06 03:45:22;;;;;;;0.20;0.20;;;11.00;99.90;;;;;;5024879;28;20040;-50
2023/06/06 03:47:49;;;;;;;0.10;0.10;;;11.00;99.90;;;;;;5020173;28;20349;-48
2023/06/06 03:50:15;;;;;;;0.38;0.38;;;11.00;99.90;;;;;;5023563;28;20072;-49
2023/06/06 03:52:41;;;;;;;0.20;0.20;;;11.10;99.90;;;;;;5023594;28;20041;-52
2023/06/06 03:55:09;;;;;;;0.40;0.40;;;11.10;99.90;;;;;;5015891;28;20037;-50
2023/06/06 03:57:35;;;;;;;1.00;1.00;;;11.10;99.90;;;;;;5014466;28;20030;-49
2023/06/06 04:00:04;;;;;;;0.20;0.20;;;11.10;99.90;;;;;;5013572;28;20030;-49
2023/06/06 04:02:31;;;;;;;0.30;0.30;;;11.20;99.90;;;;;;5020704;28;20029;-51
2023/06/06 04:05:01;;;;;;;0.20;0.20;;;11.20;99.90;;;;;;5016438;28;20113;-50
2023/06/06 04:07:28;;;;;;;0.20;0.20;;;11.20;99.90;;;;;;5011179;28;20076;-49
2023/06/06 04:09:54;;;;;;;0.20;0.20;;;11.20;99.90;;;;;;5021357;28;20451;-53
2023/06/06 04:12:21;;;;;;;0.30;0.30;;;11.30;99.90;;;;;;5026546;28;20030;-52
2023/06/06 04:14:47;;;;;;;0.28;0.20;;;11.30;99.90;;;;;;5019420;28;20041;-51
2023/06/06 04:17:13;;;;;;;0.10;0.10;;;11.40;99.90;;;;;;5019076;28;20128;-52
2023/06/06 04:19:38;;;;;;;0.95;0.30;;;11.40;99.90;;;;;;5021142;28;20100;-49
2023/06/06 04:22:05;;;;;;;0.35;0.30;;;11.40;99.90;;;;;;5029868;28;20033;-51
2023/06/06 04:24:31;;;;;;;0.20;0.20;;;11.40;99.90;;;;;;5029158;28;20475;-50
2023/06/06 04:26:57;;;;;;;0.43;0.40;;;11.50;99.90;;;;;;5029626;28;20032;-53
2023/06/06 04:29:23;;;;;;;0.30;0.30;;;11.50;99.90;;;;;;5029570;28;20025;-55
2023/06/06 04:31:52;;;;;;;0.65;0.65;;;11.50;99.90;;;;;;5029933;28;20034;-51
2023/06/06 04:34:23;;;;;;;0.20;0.20;;;11.50;99.90;;;;;;5029828;28;20466;-53
2023/06/06 04:36:51;;;;;;;0.28;0.28;;;11.60;99.90;;;;;;5016481;28;20116;-57
2023/06/06 04:39:19;;;;;;;0.20;0.20;;;11.60;99.90;;;;;;5012094;28;20500;-51
2023/06/06 04:41:45;;;;;;;0.20;0.20;;;11.70;99.90;;;;;;5032886;28;20049;-48
2023/06/06 04:44:11;;;;;;;0.25;0.25;;;11.70;99.90;;;;;;5033332;28;20111;-48
2023/06/06 04:46:36;;;;;;;0.30;0.30;;;11.70;99.90;;;;;;5032861;28;20014;-53
2023/06/06 04:49:02;;;;;;;0.10;0.10;;;11.80;99.90;;;;;;5033178;28;20025;-51
2023/06/06 04:51:29;;;;;;;0.30;0.30;;;11.90;99.90;;;;;;5032731;28;20025;-52
2023/06/06 04:54:02;;;;;;;0.20;0.20;;;12.00;99.90;;;;;;5032910;28;20053;-51
2023/06/06 04:56:29;;;;;;;0.30;0.30;;;12.00;99.90;;;;;;5015387;28;20381;-51
2023/06/06 04:58:56;;;;;;;0.20;0.20;;;12.10;99.90;;;;;;5033128;28;20037;-52
2023/06/06 05:01:23;;;;;;;0.38;0.38;;;12.20;99.90;;;;;;5033081;28;20062;-48
2023/06/06 05:03:49;;;;;;;0.22;0.22;;;12.20;99.90;;;;;;5032678;28;20377;-50
2023/06/06 05:06:15;;;;;;;0.57;0.30;;;12.40;99.90;;;;;;5033178;28;20022;-49
2023/06/06 05:08:41;;;;;;;0.20;0.20;;;12.50;99.90;;;;;;5032358;28;20037;-51
2023/06/06 05:11:07;;;;;;;0.20;0.20;;;12.70;99.90;;;;;;5033002;28;20025;-48
2023/06/06 05:13:34;;;;;;;0.43;0.20;;;12.80;99.90;;;;;;5032494;28;20472;-54
2023/06/06 05:16:00;;;;;;;0.30;0.30;;;12.80;99.90;;;;;;5032828;28;20049;-55
2023/06/06 05:18:26;;;;;;;0.17;0.17;;;12.90;99.90;;;;;;5032736;28;20060;-50
2023/06/06 05:20:52;;;;;;;0.30;0.30;;;13.00;99.90;;;;;;5032543;28;20054;-51
2023/06/06 05:23:17;;;;;;;0.20;0.20;;;13.10;99.90;;;;;;5033030;28;20022;-55
2023/06/06 05:25:43;;;;;;;0.30;0.30;;;13.10;99.90;;;;;;5032472;28;20029;-51
2023/06/06 05:28:11;;;;;;;0.40;0.20;;;13.20;99.90;;;;;;5032582;28;20033;-53
2023/06/06 05:30:37;;;;;;;0.20;0.20;;;13.20;99.90;;;;;;5032708;28;20030;-50
2023/06/06 05:33:03;;;;;;;0.15;0.15;;;13.20;99.90;;;;;;5032536;28;20166;-49
2023/06/06 05:35:28;;;;;;;0.20;0.20;;;13.20;99.90;;;;;;5032696;28;20018;-54
2023/06/06 05:37:54;;;;;;;0.28;0.25;;;13.20;99.90;;;;;;5014567;28;20037;-51
2023/06/06 05:40:19;;;;;;;0.10;0.10;;;13.30;99.90;;;;;;5032682;28;20799;-51
2023/06/06 05:42:45;;;;;;;0.30;0.30;;;13.30;99.90;;;;;;5032611;28;20381;-54
2023/06/06 05:45:10;;;;;;;0.10;0.10;;;13.40;99.90;;;;;;5032133;28;20096;-51
2023/06/06 05:47:36;;;;;;;0.30;0.30;;;13.40;99.90;;;;;;5032350;28;20033;-51
2023/06/06 05:50:02;;;;;;;0.20;0.20;;;13.60;99.90;;;;;;5032059;28;20395;-49
2023/06/06 05:52:28;;;;;;;0.82;0.57;;;13.70;99.90;;;;;;5031430;28;20033;-52
2023/06/06 05:55:05;;;;;;;0.20;0.20;;;13.80;99.90;;;;;;5031617;28;20052;-51
2023/06/06 05:57:30;;;;;;;0.10;0.10;;;13.90;99.90;;;;;;5032248;28;20026;-53
2023/06/06 06:00:00;;;;;;;0.20;0.20;;;14.00;99.90;;;;;;5031943;28;20072;-52
2023/06/06 06:02:30;;;;;;;0.28;0.28;;;14.10;99.90;;;;;;5031788;28;20564;-52
2023/06/06 06:04:56;;;;;;;0.20;0.20;;;14.10;99.90;;;;;;5032292;28;20076;-54
2023/06/06 06:07:22;;;;;;;0.25;0.25;;;14.20;99.90;;;;;;5031357;28;20021;-53
2023/06/06 06:09:48;;;;;;;0.20;0.20;;;14.20;99.90;;;;;;5032010;28;20419;-54
2023/06/06 06:12:14;;;;;;;0.10;0.10;;;14.30;99.90;;;;;;5031405;28;20034;-48
2023/06/06 06:14:40;;;;;;;0.20;0.20;;;14.40;99.90;;;;;;5032061;28;20064;-53
2023/06/06 06:17:05;;;;;;;0.20;0.20;;;14.60;99.90;;;;;;5023715;28;20022;-48
2023/06/06 06:19:31;;;;;;;0.10;0.10;;;14.90;99.90;;;;;;5031218;28;20045;-50
2023/06/06 06:21:57;;;;;;;0.30;0.30;;;15.10;99.90;;;;;;5031463;28;20026;-55
2023/06/06 06:24:22;;;;;;;0.45;0.38;;;15.20;99.90;;;;;;5031340;28;20029;-49
2023/06/06 06:26:50;;;;;;;0.65;0.60;;;15.50;99.90;;;;;;5031320;28;20029;-54
2023/06/06 06:29:16;;;;;;;0.10;0.10;;;15.70;99.90;;;;;;5031453;28;20087;-49
2023/06/06 06:31:41;;;;;;;0.20;0.20;;;15.70;99.90;;;;;;5030004;28;20420;-51
2023/06/06 06:34:07;;;;;;;0.20;0.20;;;15.80;99.90;;;;;;5031120;28;20199;-48
2023/06/06 06:36:32;;;;;;;0.20;0.20;;;15.80;99.90;;;;;;5026672;28;20017;-53
2023/06/06 06:38:58;;;;;;;0.57;0.52;;;15.60;99.90;;;;;;5023455;28;20460;-49
2023/06/06 06:41:24;;;;;;;0.35;0.35;;;15.50;99.90;;;;;;5029705;28;20033;-54
2023/06/06 06:43:50;;;;;;;0.55;0.55;;;15.40;99.90;;;;;;5025739;28;20443;-49
2023/06/06 06:46:16;;;;;;;0.22;0.22;;;15.40;99.90;;;;;;5026901;28;20025;-49
2023/06/06 06:48:45;;;;;;;0.20;0.20;;;15.30;99.90;;;;;;5030757;28;20362;-52
2023/06/06 06:51:13;;;;;;;0.28;0.28;;;15.20;99.90;;;;;;5024906;28;20056;-55
2023/06/06 06:53:39;;;;;;;0.40;0.30;;;15.30;99.90;;;;;;5020182;28;20037;-52
2023/06/06 06:56:05;;;;;;;0.20;0.20;;;15.50;99.90;;;;;;5027622;28;20116;-53
2023/06/06 06:58:34;;;;;;;0.20;0.20;;;15.50;99.90;;;;;;5020129;28;20496;-50
2023/06/06 07:01:02;;;;;;;0.20;0.20;;;15.50;99.90;;;;;;5025894;28;20144;-55
2023/06/06 07:03:28;;;;;;;0.25;0.25;;;15.70;99.90;;;;;;5019972;28;20456;-53
2023/06/06 07:05:54;;;;;;;0.10;0.10;;;16.10;99.90;;;;;;5015786;28;20108;-53
2023/06/06 07:08:20;;;;;;;1.30;1.05;;;16.30;99.90;;;;;;5020326;28;20422;-55
2023/06/06 07:10:46;;;;;;;0.57;0.30;;;16.50;99.90;;;;;;5017168;28;20029;-54
2023/06/06 07:13:15;;;;;;;0.30;0.30;;;16.60;99.90;;;;;;5019986;28;20394;-59
2023/06/06 07:15:40;;;;;;;0.20;0.20;;;16.80;99.90;;;;;;5017083;28;20108;-53
2023/06/06 07:18:06;;;;;;;0.17;0.17;;;16.60;99.90;;;;;;5014797;28;20199;-52
2023/06/06 07:20:33;;;;;;;0.35;0.35;;;16.60;99.90;;;;;;5029800;28;20029;-52
2023/06/06 07:22:58;;;;;;;0.30;0.30;;;16.60;99.90;;;;;;5030356;28;20557;-52
2023/06/06 07:25:24;;;;;;;0.22;0.22;;;16.60;99.90;;;;;;5021536;28;20034;-50
2023/06/06 07:27:50;;;;;;;0.63;0.30;;;16.80;99.90;;;;;;5022525;28;20025;-50
2023/06/06 07:30:15;;;;;;;0.20;0.20;;;16.80;99.90;;;;;;5012397;28;20026;-48
2023/06/06 07:32:43;;;;;;;0.20;0.20;;;16.80;99.90;;;;;;5013012;28;20038;-49
2023/06/06 07:35:11;;;;;;;0.52;0.52;;;16.90;99.90;;;;;;5013052;28;20107;-53
2023/06/06 07:37:37;;;;;;;0.75;0.30;;;17.10;99.90;;;;;;5013724;28;20144;-50
2023/06/06 07:40:05;;;;;;;0.20;0.20;;;17.30;99.90;;;;;;5013184;28;20026;-50
2023/06/06 07:42:31;;;;;;;0.25;0.20;;;17.40;99.90;;;;;;5014044;28;20033;-52
2023/06/06 07:44:58;;;;;;;0.20;0.20;;;17.70;99.90;;;;;;5013355;28;20087;-48
2023/06/06 07:47:24;;;;;;;0.20;0.20;;;18.30;99.90;;;;;;5014697;28;20026;-51
2023/06/06 07:49:52;;;;;;;0.75;0.68;;;18.60;99.90;;;;;;5013280;28;20041;-53
2023/06/06 07:52:18;;;;;;;0.70;0.68;;;19.00;99.90;;;;;;5023836;28;20029;-52
2023/06/06 07:54:44;;;;;;;0.30;0.30;;;18.70;99.90;;;;;;5015429;28;20049;-51
2023/06/06 07:57:10;;;;;;;0.40;0.40;;;18.50;99.90;;;;;;5020743;28;20025;-51
2023/06/06 07:59:36;;;;;;;0.63;0.32;;;18.80;99.90;;;;;;5020047;28;20034;-52
2023/06/06 08:02:02;;;;;;;0.55;0.50;;;18.70;99.90;;;;;;5018693;28;20033;-57
2023/06/06 08:04:28;;;;;;;0.30;0.30;;;19.00;99.90;;;;;;5012259;28;20022;-52
2023/06/06 08:06:53;;;;;;;0.50;0.40;;;19.20;99.90;;;;;;5019085;28;20033;-56
2023/06/06 08:09:19;;;;;;;0.40;0.40;;;19.70;99.90;;;;;;5011841;28;20088;-50
2023/06/06 08:11:45;;;;;;;0.28;0.28;;;20.20;99.90;;;;;;5018678;28;20030;-51
2023/06/06 08:14:11;;;;;;;0.60;0.60;;;20.10;99.90;;;;;;5016991;28;20029;-53
2023/06/06 08:16:37;;;;;;;0.75;0.30;;;19.90;99.90;;;;;;5022844;28;20434;-56
2023/06/06 08:19:04;;;;;;;0.60;0.60;;;19.60;99.90;;;;;;5016827;28;20029;-52
2023/06/06 08:21:29;;;;;;;0.52;0.52;;;19.40;99.90;;;;;;5020341;28;20029;-55
2023/06/06 08:23:57;;;;;;;0.30;0.30;;;19.20;99.90;;;;;;5034196;28;20041;-58
2023/06/06 08:26:25;;;;;;;0.73;0.73;;;19.50;99.90;;;;;;5016132;28;20412;-57
2023/06/06 08:28:51;;;;;;;0.52;0.50;;;19.90;99.90;;;;;;5034002;28;20045;-56
2023/06/06 08:31:17;;;;;;;0.20;0.20;;;20.10;99.90;;;;;;5033853;28;20083;-55
2023/06/06 08:33:43;;;;;;;0.20;0.20;;;20.20;99.90;;;;;;5033810;28;20061;-54
2023/06/06 08:36:08;;;;;;;0.32;0.32;;;20.10;99.90;;;;;;5033595;28;20044;-55
2023/06/06 08:38:34;;;;;;;0.28;0.25;;;20.10;99.90;;;;;;5034013;28;20548;-54
2023/06/06 08:41:01;;;;;;;0.30;0.28;;;19.90;99.90;;;;;;5033373;28;20079;-52
2023/06/06 08:43:27;;;;;;;0.75;0.68;;;19.90;99.90;;;;;;5033210;28;20060;-55
2023/06/06 08:45:56;;;;;;;0.17;0.17;;;20.00;99.90;;;;;;5033601;28;20152;-53
2023/06/06 08:48:28;;;;;;;0.30;0.30;;;20.70;99.90;;;;;;5033393;28;20033;-49
2023/06/06 08:50:56;;;;;;;0.10;0.10;;;20.10;99.90;;;;;;5033168;28;20508;-49
2023/06/06 08:53:23;;;;;;;0.40;0.40;;;20.10;99.90;;;;;;5030832;28;20030;-53
2023/06/06 08:55:49;;;;;;;0.30;0.30;;;19.70;99.90;;;;;;5031841;28;20452;-58
2023/06/06 08:58:16;;;;;;;0.55;0.55;;;20.00;99.90;;;;;;5028864;28;20025;-56
2023/06/06 09:00:42;;;;;;;0.50;0.40;;;20.00;99.90;;;;;;5030635;28;20034;-52
2023/06/06 09:03:08;;;;;;;0.40;0.40;;;20.30;99.90;;;;;;5026974;28;20741;-53
2023/06/06 09:05:38;;;;;;;0.68;0.45;;;20.60;99.90;;;;;;5031692;28;20021;-59
2023/06/06 09:08:04;;;;;;;0.20;0.20;;;21.30;99.90;;;;;;5031933;28;20534;-53
2023/06/06 09:10:30;;;;;;;0.85;0.63;;;22.20;99.90;;;;;;5030788;28;20483;-54
2023/06/06 09:12:55;;;;;;;0.30;0.30;;;23.30;98.20;;;;;;5028417;28;20041;-55
2023/06/06 09:15:21;;;;;;;0.20;0.20;;;24.00;96.90;;;;;;5017539;28;20393;-56
2023/06/06 09:17:52;;;;;;;0.65;0.60;;;24.80;96.60;;;;;;5012536;28;20029;-51
2023/06/06 09:20:18;;;;;;;0.20;0.20;;;24.80;91.30;;;;;;5022972;28;20116;-52
2023/06/06 09:22:46;;;;;;;0.40;0.40;;;24.80;91.30;;;;;;5022904;28;20112;-53
2023/06/06 09:25:31;;;;;;;0.50;0.50;;;24.40;86.70;;;;;;5019650;28;20524;-53
2023/06/06 09:28:00;;;;;;;0.82;0.52;;;24.00;86.50;;;;;;5019984;28;20037;-54
2023/06/06 09:30:32;;;;;;;0.50;0.30;;;23.50;87.40;;;;;;5018763;28;20018;-55
2023/06/06 09:33:02;;;;;;;0.55;0.47;;;23.20;88.90;;;;;;5002282;28;20176;-55
2023/06/06 09:35:34;;;;;;;0.68;0.50;;;22.60;89.90;;;;;;5019484;28;20057;-54
2023/06/06 09:38:14;;;;;;;1.17;0.63;;;22.60;92.00;;;;;;5018981;28;20029;-53
2023/06/06 09:40:52;;;;;;;1.52;0.73;;;22.70;91.70;;;;;;5018326;28;20037;-51
2023/06/06 09:43:26;;;;;;;0.50;0.30;;;22.60;88.10;;;;;;5024984;28;20033;-53
2023/06/06 09:45:55;;;;;;;0.52;0.43;;;22.60;92.40;;;;;;5016609;28;20022;-53
2023/06/06 09:48:21;;;;;;;;;;;22.70;92.20;;;;;;5020085;28;20022;-56
2023/06/06 09:50:47;;;;;;;0.75;0.40;;;22.70;91.70;;;;;;5018568;28;20326;-51
2023/06/06 09:53:13;;;;;;;0.47;0.45;;;23.10;90.10;;;;;;5017430;28;20038;-56
2023/06/06 09:55:43;;;;;;;0.30;0.20;;;23.60;90.80;;;;;;4978998;28;1211685;-54
2023/06/06 09:58:17;;;;;;;0.50;0.38;;;23.90;90.20;;;;;;5017381;28;20068;-52
2023/06/06 10:00:44;;;;;;;0.30;0.30;;;23.90;88.70;;;;;;5017577;28;20014;-56
2023/06/06 10:03:18;;;;;;;1.08;0.47;;;24.40;87.90;;;;;;5017727;28;20030;-53
2023/06/06 10:05:51;;;;;;;0.63;0.52;;;24.80;87.10;;;;;;5017305;28;20498;-55
2023/06/06 10:08:18;;;;;;;1.88;1.38;;;25.40;86.10;;;;;;5024366;28;20484;-53
2023/06/06 10:10:49;;;;;;;1.75;1.23;;;25.00;81.40;;;;;;5020953;28;20026;-51
2023/06/06 10:13:16;;;;;;;2.05;1.10;;;24.60;81.30;;;;;;5023855;28;20072;-54
2023/06/06 10:15:42;;;;;;;1.25;0.93;;;24.30;86.00;;;;;;5029877;28;20072;-52
2023/06/06 10:18:09;;;;;;;0.70;0.52;;;24.60;85.70;;;;;;5022181;28;20072;-57
2023/06/06 10:20:36;;;;;;;0.60;0.50;;;24.50;80.80;;;;;;5031567;28;20378;-52
2023/06/06 10:23:02;;;;;;;0.30;0.30;;;24.20;83.30;;;;;;5031922;28;20381;-58
2023/06/06 10:25:29;;;;;;;0.38;0.38;;;24.50;85.50;;;;;;5032018;28;20060;-55
2023/06/06 10:28:17;;;;;;;0.30;0.30;;;24.60;83.60;;;;;;5030579;28;20472;-50
2023/06/06 10:30:42;;;;;;;0.37;0.37;;;24.60;84.90;;;;;;5020546;28;20022;-50
2023/06/06 10:33:11;;;;;;;0.30;0.30;;;24.60;82.10;;;;;;5024728;28;20289;-48
2023/06/06 10:35:39;;;;;;;2.40;1.15;;;24.70;81.80;;;;;;5022370;28;20025;-47
2023/06/06 10:38:08;;;;;;;0.77;0.60;;;24.60;77.10;;;;;;5022905;28;20021;-53
2023/06/06 10:40:41;;;;;;;0.73;0.47;;;24.30;77.00;;;;;;5027898;28;20388;-56
2023/06/06 10:43:08;;;;;;;0.45;0.32;;;24.80;83.00;;;;;;5030624;28;20033;-52
2023/06/06 10:45:42;;;;;;;0.80;0.60;;;24.50;77.40;;;;;;5031260;28;20032;-46
2023/06/06 10:48:07;;;;;;;0.30;0.30;;;24.80;80.70;;;;;;5027069;28;20424;-54
2023/06/06 10:50:33;;;;;;;0.60;0.30;;;25.20;79.90;;;;;;5027401;28;20160;-58
2023/06/06 10:53:05;;;;;;;0.73;0.43;;;25.50;76.40;;;;;;5030067;28;20385;-59
2023/06/06 10:55:30;;;;;;;0.30;0.30;;;25.60;75.20;;;;;;5016867;28;20051;-58
2023/06/06 10:58:26;;;;;;;0.30;0.30;;;25.60;75.50;;;;;;5019936;28;20032;-58
2023/06/06 11:00:57;;;;;;;0.63;0.40;;;25.80;77.80;;;;;;5023587;28;20057;-60
2023/06/06 11:03:32;;;;;;;0.32;0.32;;;26.20;77.20;;;;;;5027394;28;20515;-59
2023/06/06 11:06:01;;;;;;;0.82;0.40;;;26.40;71.60;;;;;;5015110;28;20042;-57
2023/06/06 11:08:33;;;;;;;0.60;0.60;;;26.10;70.50;;;;;;5027697;28;20052;-56
2023/06/06 11:11:18;;;;;;;0.35;0.28;;;24.90;72.30;;;;;;5025004;28;20037;-51
2023/06/06 11:13:57;;;;;;;0.63;0.52;;;25.10;76.30;;;;;;5030031;28;20364;-53
2023/06/06 11:16:49;;;;;;;;;;;25.30;73.50;;;;;;5023032;28;20022;-52
2023/06/06 11:19:19;;;;;;;0.98;0.65;;;24.50;73.40;;;;;;5028629;28;19909;-52
2023/06/06 11:21:49;;;;;;;0.40;0.40;;;25.10;78.60;;;;;;5030651;28;20124;-47
2023/06/06 11:24:18;;;;;;;0.50;0.50;;;25.20;72.00;;;;;;5030698;28;20026;-54
2023/06/06 11:26:44;;;;;;;0.28;0.20;;;25.20;71.40;;;;;;5028696;28;20018;-51
2023/06/06 11:29:11;;;;;;;0.60;0.40;;;25.40;73.90;;;;;;5020145;28;20113;-49
2023/06/06 11:31:40;;;;;;;0.22;0.22;;;25.50;71.80;;;;;;5024505;28;20148;-57
2023/06/06 11:34:10;;;;;;;0.40;0.40;;;25.50;71.90;;;;;;5029186;28;20068;-53
2023/06/06 11:36:39;;;;;;;0.40;0.30;;;25.10;70.60;;;;;;5030019;28;20583;-47
2023/06/06 11:39:07;;;;;;;0.90;0.75;;;24.50;69.10;;;;;;5030661;28;20032;-47
2023/06/06 11:41:45;;;;;;;0.40;0.40;;;24.80;72.70;;;;;;5029702;28;20469;-50
2023/06/06 11:44:12;;;;;;;0.30;0.30;;;24.80;70.40;;;;;;5026959;28;20266;-47
2023/06/06 11:46:45;;;;;;;1.30;0.77;;;25.00;72.60;;;;;;5026690;28;20060;-50
2023/06/06 11:49:11;;;;;;;0.30;0.30;;;24.60;70.90;;;;;;5023147;28;20029;-51
2023/06/06 11:51:37;;;;;;;0.52;0.52;;;24.60;69.90;;;;;;5025807;28;20022;-48
2023/06/06 11:54:17;;;;;;;0.55;0.55;;;23.90;71.20;;;;;;5028972;28;20057;-47
2023/06/06 11:56:43;;;;;;;0.40;0.40;;;24.10;71.80;;;;;;5023943;28;20026;-55
2023/06/06 11:59:11;;;;;;;0.93;0.50;;;24.30;72.70;;;;;;5031561;28;20397;-47
2023/06/06 12:01:52;;;;;;;0.30;0.30;;;24.50;73.40;;;;;;5033849;28;20096;-49
2023/06/06 12:04:22;;;;;;;0.30;0.30;;;24.00;71.80;;;;;;5028089;28;20060;-48
2023/06/06 12:06:50;;;;;;;0.20;0.20;;;23.70;74.30;;;;;;5022696;28;20045;-56
2023/06/06 12:09:18;;;;;;;0.40;0.40;;;23.60;73.90;;;;;;5034113;28;20167;-47
2023/06/06 12:11:54;;;;;;;2.85;0.85;;;23.90;73.10;;;;;;5028029;28;20022;-51
2023/06/06 12:14:25;;;;;;;0.38;0.30;;;23.70;74.30;;;;;;5024892;28;20036;-50
2023/06/06 12:16:51;;;;;;;0.63;0.52;;;23.60;72.70;;;;;;5021670;28;20018;-53
2023/06/06 12:19:18;;;;;;;0.30;0.30;;;23.90;74.80;;;;;;5027373;28;20030;-51
2023/06/06 12:21:49;;;;;;;0.30;0.30;;;23.70;73.90;;;;;;5033918;28;20107;-48
2023/06/06 12:24:19;;;;;;;0.20;0.20;;;24.00;76.00;;;;;;5033903;28;20052;-47
2023/06/06 12:26:53;;;;;;;0.20;0.20;;;24.30;77.80;;;;;;5033715;28;20036;-47
2023/06/06 12:29:26;;;;;;;0.20;0.20;;;24.50;75.60;;;;;;5021287;28;20396;-49
2023/06/06 12:32:12;;;;;;;1.48;0.82;;;24.30;74.50;;;;;;5033499;28;20488;-49
2023/06/06 12:34:48;;;;;;;0.20;0.20;;;24.30;75.30;;;;;;5033786;28;20030;-51
2023/06/06 12:37:15;;;;;;;0.32;0.30;;;24.20;72.40;;;;;;5033719;28;20412;-47
2023/06/06 12:39:42;;;;;;;0.43;0.43;;;23.90;73.60;;;;;;5033349;28;20026;-52
2023/06/06 12:42:15;;;;;;;0.20;0.20;;;23.80;75.50;;;;;;5033244;28;20460;-50
2023/06/06 12:44:41;;;;;;;0.30;0.30;;;23.70;74.30;;;;;;5028877;28;20146;-53
2023/06/06 12:47:07;;;;;;;0.50;0.50;;;22.70;76.00;;;;;;5033180;28;20025;-50
2023/06/06 12:49:36;;;;;;;1.85;0.68;;;22.90;77.90;;;;;;5032671;28;20041;-48
2023/06/06 12:52:05;;;;;;;0.75;0.63;;;22.80;77.10;;;;;;5027146;28;20224;-50